TimeCST,TemperatureF,Dew PointF,Humidity,Sea Level PressureIn,VisibilityMPH,Wind Direction,Wind SpeedMPH,Gust SpeedMPH,PrecipitationIn,Events,Conditions,WindDirDegrees,DateUTC
12:15 AM,-0.6,-3.6,87,30.06,10.0,Calm,Calm,-,N/A,,Clear,0,2013-02-06 06:15:00
12:35 AM,-2.4,-5.6,86,30.06,10.0,Calm,Calm,-,N/A,,Clear,0,2013-02-06 06:35:00
12:55 AM,-2.2,-5.6,85,30.07,10.0,Calm,Calm,-,N/A,,Clear,0,2013-02-06 06:55:00
1:15 AM,-3.8,-7.2,85,30.07,10.0,Calm,Calm,-,N/A,,Clear,0,2013-02-06 07:15:00
1:35 AM,-3.5,-6.7,86,30.08,10.0,Calm,Calm,-,N/A,,Clear,0,2013-02-06 07:35:00
1:55 AM,-4.4,-7.8,85,30.08,10.0,Calm,Calm,-,N/A,,Clear,0,2013-02-06 07:55:00
2:15 AM,-6.5,-10.5,83,30.08,10.0,Calm,Calm,-,N/A,,Clear,0,2013-02-06 08:15:00
2:35 AM,-5.8,-9.6,84,30.08,10.0,Calm,Calm,-,N/A,,Clear,0,2013-02-06 08:35:00
2:55 AM,-6.0,-9.6,84,30.09,7.0,Calm,Calm,-,N/A,,Clear,0,2013-02-06 08:55:00
3:15 AM,-6.5,-10.5,83,30.08,10.0,Calm,Calm,-,N/A,,Clear,0,2013-02-06 09:15:00
3:35 AM,-7.2,-11.2,83,30.09,10.0,Calm,Calm,-,N/A,,Mostly Cloudy,0,2013-02-06 09:35:00
3:55 AM,-7.1,-11.0,83,30.10,10.0,Calm,Calm,-,N/A,,Mostly Cloudy,0,2013-02-06 09:55:00
4:15 AM,-7.1,-10.8,84,30.09,10.0,Calm,Calm,-,N/A,,Overcast,0,2013-02-06 10:15:00
4:35 AM,-7.2,-11.0,84,30.10,10.0,Calm,Calm,-,N/A,,Overcast,0,2013-02-06 10:35:00
4:55 AM,-6.7,-10.3,84,30.11,3.0,Calm,Calm,-,N/A,,Overcast,0,2013-02-06 10:55:00
5:15 AM,-6.7,-10.3,84,30.11,0.2,Calm,Calm,-,N/A,Fog,Light Freezing Fog,0,2013-02-06 11:15:00
5:35 AM,-6.5,-10.3,84,30.11,0.2,Calm,Calm,-,N/A,Fog,Light Freezing Fog,0,2013-02-06 11:35:00
5:55 AM,-6.2,-9.9,84,30.11,5.0,Calm,Calm,-,N/A,,Overcast,0,2013-02-06 11:55:00
6:15 AM,-5.8,-9.4,84,30.11,0.2,Calm,Calm,-,N/A,Fog,Light Freezing Fog,0,2013-02-06 12:15:00
6:35 AM,-6.0,-9.6,84,30.11,0.8,Calm,Calm,-,N/A,,Mist,0,2013-02-06 12:35:00
6:55 AM,-5.6,-9.4,84,30.13,0.2,Calm,Calm,-,N/A,Fog,Light Freezing Fog,0,2013-02-06 12:55:00
7:35 AM,-6.9,-10.8,83,30.13,5.0,Calm,Calm,-,N/A,,Overcast,0,2013-02-06 13:35:00
7:55 AM,-7.1,-11.2,82,30.13,0.5,Calm,Calm,-,N/A,Fog,Light Freezing Fog,0,2013-02-06 13:55:00
8:15 AM,-5.4,-9.4,83,30.15,0.2,Calm,Calm,-,N/A,Fog,Light Freezing Fog,0,2013-02-06 14:15:00
8:55 AM,-2.0,-5.3,86,30.16,4.0,Calm,Calm,-,N/A,,Scattered Clouds,0,2013-02-06 14:55:00
9:15 AM,0.3,-3.1,85,30.15,4.0,Calm,Calm,-,N/A,,Scattered Clouds,0,2013-02-06 15:15:00
9:35 AM,3.0,-0.4,86,30.16,4.0,Calm,Calm,-,N/A,,Clear,0,2013-02-06 15:35:00
9:55 AM,5.4,2.7,89,30.16,5.0,Calm,Calm,-,N/A,,Clear,0,2013-02-06 15:55:00
10:35 AM,14.0,12.2,93,30.15,10.0,South,4.6,-,N/A,,Clear,170,2013-02-06 16:35:00
10:55 AM,15.8,14.0,93,30.15,10.0,South,3.5,-,N/A,,Clear,170,2013-02-06 16:55:00
11:15 AM,17.1,15.3,93,30.15,10.0,South,4.6,-,N/A,,Clear,170,2013-02-06 17:15:00
11:35 AM,18.0,15.8,91,30.16,10.0,SSW,9.2,-,N/A,,Scattered Clouds,210,2013-02-06 17:35:00
11:55 AM,18.1,15.6,90,30.14,10.0,South,5.8,-,N/A,,Mostly Cloudy,180,2013-02-06 17:55:00
12:15 PM,18.7,14.7,85,30.14,10.0,South,3.5,-,N/A,,Mostly Cloudy,180,2013-02-06 18:15:00
12:35 PM,19.9,13.8,77,30.14,10.0,SW,3.5,-,N/A,,Overcast,220,2013-02-06 18:35:00
12:55 PM,20.8,13.6,74,30.13,10.0,South,5.8,-,N/A,,Overcast,170,2013-02-06 18:55:00
1:15 PM,21.2,14.0,74,30.13,10.0,South,5.8,-,N/A,,Overcast,180,2013-02-06 19:15:00
1:35 PM,21.2,14.5,75,30.11,2.5,SSE,3.5,-,N/A,,Overcast,150,2013-02-06 19:35:00
1:55 PM,20.8,15.4,80,30.11,1.5,SE,5.8,-,N/A,Snow,Light Snow,130,2013-02-06 19:55:00
2:15 PM,20.3,16.7,86,30.10,1.0,SE,5.8,-,N/A,,Overcast,140,2013-02-06 20:15:00
2:35 PM,20.1,17.4,89,30.11,0.5,SSE,4.6,-,N/A,,Overcast,150,2013-02-06 20:35:00
2:55 PM,20.3,17.6,89,30.10,0.8,SE,4.6,-,N/A,,Overcast,130,2013-02-06 20:55:00
3:15 PM,20.3,18.1,91,30.10,0.8,SE,5.8,-,0.01,,Overcast,140,2013-02-06 21:15:00
3:35 PM,20.3,18.0,91,30.09,0.8,SE,5.8,-,0.01,Snow,Light Snow,140,2013-02-06 21:35:00
3:55 PM,20.3,18.3,92,30.08,0.8,SSE,5.8,-,0.01,,Overcast,150,2013-02-06 21:55:00
4:15 PM,20.7,18.5,91,30.08,1.5,SE,3.5,-,N/A,,Overcast,140,2013-02-06 22:15:00
4:35 PM,20.3,17.8,90,30.08,5.0,ESE,8.1,-,N/A,,Overcast,120,2013-02-06 22:35:00
4:55 PM,19.9,16.7,87,30.08,7.0,ESE,9.2,-,N/A,,Overcast,110,2013-02-06 22:55:00
5:15 PM,19.4,16.7,89,30.07,7.0,East,10.4,-,N/A,,Overcast,100,2013-02-06 23:15:00
5:35 PM,19.2,16.5,89,30.07,7.0,ESE,8.1,-,N/A,,Overcast,110,2013-02-06 23:35:00
5:55 PM,19.0,16.3,89,30.07,7.0,East,8.1,-,N/A,,Overcast,100,2013-02-06 23:55:00
6:15 PM,19.0,16.3,89,30.07,7.0,East,9.2,-,N/A,,Overcast,100,2013-02-07 00:15:00
6:35 PM,19.0,16.5,90,30.07,5.0,SE,10.4,-,N/A,,Overcast,130,2013-02-07 00:35:00
6:55 PM,19.0,16.7,91,30.05,5.0,East,9.2,-,N/A,,Overcast,100,2013-02-07 00:55:00
7:15 PM,19.2,17.1,91,30.06,5.0,ESE,10.4,-,N/A,,Overcast,110,2013-02-07 01:15:00
7:35 PM,19.4,17.6,93,30.05,4.0,ESE,9.2,-,N/A,,Overcast,120,2013-02-07 01:35:00
7:55 PM,19.4,17.6,93,30.06,5.0,ESE,6.9,-,N/A,,Overcast,110,2013-02-07 01:55:00
8:15 PM,20.3,18.5,93,30.05,5.0,ESE,6.9,-,N/A,,Overcast,110,2013-02-07 02:15:00
8:35 PM,20.7,18.5,91,30.06,5.0,ESE,6.9,-,N/A,,Overcast,110,2013-02-07 02:35:00
8:55 PM,20.7,18.5,91,30.06,5.0,ESE,4.6,-,N/A,,Overcast,110,2013-02-07 02:55:00
9:15 PM,20.8,18.9,92,30.07,5.0,East,5.8,-,N/A,,Overcast,100,2013-02-07 03:15:00
9:35 PM,20.7,18.9,93,30.07,5.0,East,6.9,-,N/A,,Overcast,90,2013-02-07 03:35:00
9:55 PM,20.7,19.0,93,30.07,4.0,East,6.9,-,N/A,,Overcast,100,2013-02-07 03:55:00
10:15 PM,20.7,19.2,94,30.06,4.0,East,5.8,-,N/A,,Overcast,90,2013-02-07 04:15:00
10:35 PM,20.7,19.2,94,30.06,4.0,East,5.8,-,N/A,,Overcast,90,2013-02-07 04:35:00
10:55 PM,21.0,19.4,93,30.06,4.0,East,6.9,-,N/A,,Overcast,90,2013-02-07 04:55:00
11:15 PM,21.0,19.6,94,30.05,3.0,East,6.9,-,N/A,,Overcast,100,2013-02-07 05:15:00
11:35 PM,21.0,19.8,95,30.06,3.0,East,6.9,-,N/A,,Overcast,90,2013-02-07 05:35:00
11:55 PM,21.2,20.1,96,30.06,3.0,East,8.1,-,N/A,,Overcast,90,2013-02-07 05:55:00